Time;durP1;ratioP1;P1;durP2;ratioP2;P2;SDS_P1;SDS_P2;PMS_P1;PMS_P2;Temp;Humidity;BMP_temperature;BMP_pressure;BME280_temperature;BME280_humidity;BME280_pressure;Samples;Min_cycle;Max_cycle;Signal;HPM_P1;HPM_P2
2021/07/15 00:01:28;;;;;;;110.88;7.93;;;;;;;17.58;87.31;97489.94;4967993;28;20062;-72
2021/07/15 00:03:53;;;;;;;117.63;8.45;;;;;;;17.19;89.60;97495.53;4968121;28;20019;-73
2021/07/15 00:06:18;;;;;;;105.43;7.75;;;;;;;17.13;90.24;97496.00;4966924;28;20038;-72
2021/07/15 00:08:44;;;;;;;131.95;8.90;;;;;;;17.12;89.84;97494.31;4968992;28;20034;-73
2021/07/15 00:11:13;;;;;;;125.18;8.65;;;;;;;17.41;87.54;97488.63;4968337;28;20101;-72
2021/07/15 00:13:38;;;;;;;121.68;7.93;;;;;;;17.37;88.10;97490.66;4968827;28;20033;-72
2021/07/15 00:16:07;;;;;;;119.88;8.00;;;;;;;17.61;87.07;97489.69;4967714;28;20034;-72
2021/07/15 00:18:36;;;;;;;106.13;7.43;;;;;;;17.09;88.45;97490.13;4967731;28;20034;-73
2021/07/15 00:21:05;;;;;;;114.15;7.82;;;;;;;17.44;88.15;97496.28;4969636;28;20039;-72
2021/07/15 00:23:31;;;;;;;112.35;7.82;;;;;;;17.46;87.17;97497.00;4967046;28;20519;-72
2021/07/15 00:25:57;;;;;;;114.18;7.65;;;;;;;17.44;88.22;97497.13;4969659;28;20048;-71
2021/07/15 00:28:22;;;;;;;101.35;7.05;;;;;;;17.76;88.28;97499.06;4967815;28;20032;-72
2021/07/15 00:30:48;;;;;;;108.90;7.50;;;;;;;17.69;87.16;97503.13;4968500;28;20045;-72
2021/07/15 00:33:13;;;;;;;115.85;8.50;;;;;;;17.18;87.59;97509.66;4965446;28;20030;-72
2021/07/15 00:35:39;;;;;;;123.45;8.13;;;;;;;17.11;88.38;97509.28;4967198;28;20046;-72
2021/07/15 00:38:06;;;;;;;96.30;6.40;;;;;;;17.49;87.87;97513.41;4966734;28;20031;-73
2021/07/15 00:40:33;;;;;;;97.22;7.10;;;;;;;17.64;87.75;97518.47;4967942;28;20061;-72
2021/07/15 00:42:59;;;;;;;112.63;7.55;;;;;;;17.83;86.69;97502.91;4968664;28;20754;-72
2021/07/15 00:45:24;;;;;;;98.95;7.50;;;;;;;17.21;87.96;97508.59;4966806;28;20033;-73
2021/07/15 00:47:50;;;;;;;109.97;7.20;;;;;;;17.06;89.94;97506.16;4967193;28;20031;-72
2021/07/15 00:50:20;;;;;;;133.18;8.10;;;;;;;16.93;89.63;97505.41;4968843;28;20547;-71
2021/07/15 00:55:03;;;;;;;112.70;7.65;;;;;;;17.13;87.57;97502.09;5057609;27;20422;-71
2021/07/15 00:57:28;;;;;;;110.78;7.72;;;;;;;16.79;89.78;97502.91;5024619;28;20045;-74
2021/07/15 00:59:54;;;;;;;102.30;7.70;;;;;;;16.83;89.34;97499.13;5025100;28;20060;-72
2021/07/15 01:02:19;;;;;;;130.60;8.35;;;;;;;16.89;88.89;97499.53;5023508;28;20037;-71
2021/07/15 01:04:45;;;;;;;114.35;7.75;;;;;;;16.94;89.49;97497.34;5024565;28;20968;-72
2021/07/15 01:07:11;;;;;;;114.13;7.50;;;;;;;17.12;90.43;97500.41;5021896;28;20041;-72
2021/07/15 01:09:36;;;;;;;106.15;7.03;;;;;;;17.07;89.27;97497.28;5025852;28;20104;-71
2021/07/15 01:12:27;;;;;;;111.85;7.75;;;;;;;17.28;87.75;97504.53;5022741;28;20045;-72
2021/07/15 01:15:14;;;;;;;120.15;7.97;;;;;;;17.05;89.22;97514.16;5023299;28;20080;-72
2021/07/15 01:18:15;;;;;;;130.30;8.05;;;;;;;17.30;87.51;97502.63;5024294;28;20037;-72
2021/07/15 01:21:09;;;;;;;105.03;7.55;;;;;;;16.75;88.97;97505.78;5023192;28;20475;-72
2021/07/15 01:23:41;;;;;;;109.25;7.50;;;;;;;16.76;89.77;97506.59;5022702;28;20029;-71
2021/07/15 01:26:25;;;;;;;117.55;7.75;;;;;;;16.59;90.06;97507.84;5024917;28;20132;-72
2021/07/15 01:29:21;;;;;;;79.70;6.40;;;;;;;16.87;88.68;97501.44;5026388;28;20029;-71
2021/07/15 01:31:51;;;;;;;130.10;8.25;;;;;;;17.12;86.66;97505.69;5022005;28;20038;-71
2021/07/15 01:34:19;;;;;;;108.32;7.95;;;;;;;17.18;88.06;97507.00;5022969;28;20029;-72
2021/07/15 01:36:49;;;;;;;102.85;7.32;;;;;;;17.47;87.33;97509.22;5022260;28;20164;-72
2021/07/15 01:39:16;;;;;;;107.65;6.97;;;;;;;17.20;87.80;97513.00;5022789;28;20033;-74
2021/07/15 01:41:46;;;;;;;120.80;8.10;;;;;;;16.90;87.03;97516.16;5023092;28;20653;-73
2021/07/15 01:44:17;;;;;;;125.03;7.70;;;;;;;17.12;88.62;97521.50;5033498;28;20531;-71
2021/07/15 01:46:44;;;;;;;104.63;7.50;;;;;;;16.99;87.93;97520.75;5022154;28;20041;-71
2021/07/15 01:49:10;;;;;;;107.75;7.68;;;;;;;16.74;89.28;97526.94;5022851;28;20022;-71
2021/07/15 01:51:37;;;;;;;119.80;8.13;;;;;;;16.82;90.26;97526.38;5023774;28;20670;-72
2021/07/15 01:54:04;;;;;;;127.30;8.60;;;;;;;16.61;90.18;97521.75;5024283;28;20080;-72
2021/07/15 01:56:30;;;;;;;90.93;6.75;;;;;;;16.35;91.13;97521.00;5022708;28;20228;-72
2021/07/15 01:58:58;;;;;;;111.40;7.35;;;;;;;16.43;91.08;97523.09;5022579;28;20083;-71
2021/07/15 02:01:25;;;;;;;105.85;7.20;;;;;;;16.70;89.94;97521.06;5020951;28;20053;-72
2021/07/15 02:03:54;;;;;;;98.93;6.82;;;;;;;17.22;87.80;97518.16;5025389;28;20835;-71
2021/07/15 02:06:21;;;;;;;108.68;7.20;;;;;;;16.83;88.52;97525.47;5009165;28;20053;-71
2021/07/15 02:08:48;;;;;;;123.00;7.78;;;;;;;16.79;90.37;97518.72;5009924;28;20030;-72
2021/07/15 02:11:15;;;;;;;111.57;7.47;;;;;;;17.10;87.53;97518.13;5007814;28;20038;-72
2021/07/15 02:13:42;;;;;;;117.25;8.13;;;;;;;16.45;88.88;97518.53;5009871;28;20030;-72
2021/07/15 02:16:08;;;;;;;103.43;7.60;;;;;;;16.38;89.51;97520.81;5008352;28;20030;-72
2021/07/15 02:18:34;;;;;;;106.15;7.40;;;;;;;16.30;90.02;97529.25;5011527;28;20124;-71
2021/07/15 02:21:01;;;;;;;116.90;8.52;;;;;;;16.48;89.45;97531.50;5008028;28;20076;-71
2021/07/15 02:23:28;;;;;;;124.63;8.13;;;;;;;16.54;90.80;97531.91;5009564;28;20043;-72
2021/07/15 02:25:56;;;;;;;124.32;7.78;;;;;;;16.77;90.68;97537.25;5011739;28;20131;-72
2021/07/15 02:28:24;;;;;;;118.78;7.53;;;;;;;17.04;89.76;97544.94;5011613;28;20061;-73
2021/07/15 02:30:53;;;;;;;111.20;7.68;;;;;;;16.80;88.87;97542.31;5009834;28;20045;-72
2021/07/15 02:33:24;;;;;;;119.00;7.75;;;;;;;17.04;89.18;97550.22;5010417;28;20034;-72
2021/07/15 02:35:53;;;;;;;118.95;7.68;;;;;;;16.84;88.54;97546.44;5009318;28;20026;-72
2021/07/15 02:38:22;;;;;;;112.03;7.35;;;;;;;16.61;89.42;97550.69;5009055;28;20033;-72
2021/07/15 02:40:48;;;;;;;113.95;7.68;;;;;;;16.59;89.19;97544.72;5006817;28;20030;-71
2021/07/15 02:43:13;;;;;;;114.63;7.63;;;;;;;16.57;89.40;97557.16;5009026;28;20089;-72
2021/07/15 02:45:38;;;;;;;114.60;7.78;;;;;;;16.76;87.95;97552.22;5011562;28;20600;-72
2021/07/15 02:48:04;;;;;;;114.55;8.02;;;;;;;16.83;87.85;97552.63;5010407;28;20477;-72
2021/07/15 02:50:29;;;;;;;106.40;7.68;;;;;;;16.58;88.61;97554.41;5007611;28;20112;-72
2021/07/15 02:52:56;;;;;;;115.78;7.57;;;;;;;16.32;90.39;97563.31;5009921;28;20382;-72
2021/07/15 02:55:22;;;;;;;109.13;7.65;;;;;;;16.43;89.29;97568.69;5007653;28;20064;-71
2021/07/15 02:58:14;;;;;;;131.02;8.35;;;;;;;16.29;89.98;97574.09;5008651;28;20026;-71
2021/07/15 03:00:49;;;;;;;98.43;7.00;;;;;;;16.68;88.08;97559.84;5008905;28;20049;-72
2021/07/15 03:03:52;;;;;;;124.43;7.70;;;;;;;17.21;87.83;97571.84;5010551;28;20849;-71
2021/07/15 03:06:26;;;;;;;115.93;7.57;;;;;;;16.92;87.96;97562.50;5008279;28;20049;-71
2021/07/15 03:08:58;;;;;;;108.07;7.28;;;;;;;16.88;87.52;97568.94;5010251;28;20057;-72
2021/07/15 03:11:29;;;;;;;98.00;6.85;;;;;;;16.80;87.39;97563.38;5007860;28;20688;-71
2021/07/15 03:13:57;;;;;;;108.45;7.20;;;;;;;16.60;89.47;97566.59;5007473;28;20038;-71
2021/07/15 03:16:23;;;;;;;112.70;7.40;;;;;;;16.70;88.89;97557.94;5007720;28;20120;-72
2021/07/15 03:18:50;;;;;;;108.95;7.03;;;;;;;17.17;88.28;97559.81;5009428;28;20029;-71
2021/07/15 03:21:19;;;;;;;117.05;7.68;;;;;;;16.73;88.59;97562.97;5008350;28;20041;-71
2021/07/15 03:23:47;;;;;;;109.88;7.40;;;;;;;16.46;90.56;97562.34;4999004;28;20040;-72
2021/07/15 03:26:14;;;;;;;108.25;7.68;;;;;;;16.32;92.74;97568.59;5011251;28;20040;-72
2021/07/15 03:28:41;;;;;;;110.57;7.70;;;;;;;16.42;91.61;97556.47;5006852;28;20052;-73
2021/07/15 03:31:09;;;;;;;107.22;7.45;;;;;;;16.42;91.28;97558.28;5008164;28;20141;-71
2021/07/15 03:33:38;;;;;;;124.05;7.85;;;;;;;16.46;92.62;97559.72;5009618;28;20163;-71
2021/07/15 03:36:05;;;;;;;117.60;7.70;;;;;;;16.79;91.02;97555.59;5006775;28;20026;-71
2021/07/15 03:38:37;;;;;;;111.82;7.85;;;;;;;16.59;91.42;97547.34;5008773;28;20038;-70
2021/07/15 03:41:04;;;;;;;103.00;6.97;;;;;;;16.55;91.59;97557.25;5009212;28;20033;-70
2021/07/15 03:43:32;;;;;;;121.80;7.80;;;;;;;16.32;93.04;97563.31;5009116;28;20025;-71
2021/07/15 03:45:59;;;;;;;106.20;7.30;;;;;;;16.57;92.27;97557.16;5007653;28;20052;-71
2021/07/15 03:48:27;;;;;;;111.80;7.50;;;;;;;16.45;91.72;97548.34;5006494;28;20033;-72
2021/07/15 03:51:00;;;;;;;109.38;7.20;;;;;;;16.23;91.63;97558.72;5008384;28;20110;-71
2021/07/15 03:53:26;;;;;;;98.85;7.25;;;;;;;16.32;91.43;97548.41;5005032;28;20110;-71
2021/07/15 03:55:54;;;;;;;100.72;7.05;;;;;;;16.28;91.64;97552.19;5008140;28;20140;-72
2021/07/15 03:58:20;;;;;;;112.57;7.53;;;;;;;16.52;91.14;97543.47;5008334;28;20025;-71
2021/07/15 04:00:47;;;;;;;110.57;7.28;;;;;;;16.56;90.68;97545.78;5007100;28;20029;-71
2021/07/15 04:03:21;;;;;;;114.85;7.20;;;;;;;17.09;91.22;97548.09;5009212;28;20718;-73
2021/07/15 04:05:50;;;;;;;98.05;6.60;;;;;;;17.22;88.51;97547.16;5005735;28;20034;-75
2021/07/15 04:08:18;;;;;;;115.38;7.28;;;;;;;17.51;87.88;97540.50;5007376;28;20149;-71
2021/07/15 04:10:43;;;;;;;109.45;7.25;;;;;;;17.05;87.51;97541.34;5007612;28;20037;-74
2021/07/15 04:13:12;;;;;;;111.90;7.50;;;;;;;16.96;87.50;97536.75;5006194;28;20084;-73
2021/07/15 04:16:05;;;;;;;103.80;7.10;;;;;;;16.70;88.47;97538.66;5006473;28;20033;-71
2021/07/15 04:18:37;;;;;;;103.85;7.22;;;;;;;16.51;88.47;97533.91;5008602;28;20438;-73
2021/07/15 04:21:03;;;;;;;123.90;7.90;;;;;;;16.38;89.88;97537.41;5009012;28;20056;-71
2021/07/15 04:24:13;;;;;;;112.60;7.13;;;;;;;16.75;87.58;97529.47;5039341;28;20384;-71
2021/07/15 04:26:39;;;;;;;110.25;7.10;;;;;;;16.84;87.35;97532.44;5040733;28;20047;-73
2021/07/15 04:29:06;;;;;;;102.13;6.50;;;;;;;17.28;88.34;97523.00;5042727;28;20067;-73
2021/07/15 04:31:53;;;;;;;138.52;8.15;;;;;;;17.06;86.88;97532.50;5043708;28;20518;-72
2021/07/15 04:34:19;;;;;;;110.22;6.57;;;;;;;16.87;89.04;97537.44;5043593;28;20495;-72
2021/07/15 04:36:46;;;;;;;111.70;7.00;;;;;;;16.91;89.75;97531.03;5043676;28;20059;-73
2021/07/15 04:39:12;;;;;;;104.95;6.40;;;;;;;17.40;88.70;97531.75;5043632;28;20029;-73
2021/07/15 04:41:39;;;;;;;113.00;6.60;;;;;;;17.53;86.74;97537.75;5040486;28;20045;-74
2021/07/15 04:44:07;;;;;;;120.25;7.20;;;;;;;17.15;87.11;97531.81;5044573;28;20033;-73
2021/07/15 04:46:34;;;;;;;116.68;7.03;;;;;;;16.93;87.57;97531.75;5042699;28;20110;-73
2021/07/15 04:49:00;;;;;;;127.30;7.55;;;;;;;16.65;89.44;97533.75;5044410;28;20597;-73
2021/07/15 04:51:26;;;;;;;119.57;7.25;;;;;;;16.80;88.58;97541.44;5041090;28;20116;-73
2021/07/15 04:53:52;;;;;;;93.28;6.07;;;;;;;17.07;89.50;97544.69;5041974;28;20027;-72
2021/07/15 04:56:18;;;;;;;109.53;6.72;;;;;;;18.09;86.10;97543.09;5042473;28;20593;-72
2021/07/15 04:58:44;;;;;;;124.10;6.90;;;;;;;18.72;82.20;97549.56;5042398;28;20025;-72
2021/07/15 05:01:10;;;;;;;123.00;6.85;;;;;;;18.73;81.17;97541.53;5044170;28;20041;-73
2021/07/15 05:03:37;;;;;;;86.15;5.50;;;;;;;18.66;81.60;97538.53;5037517;28;20013;-72
2021/07/15 05:06:05;;;;;;;85.93;5.53;;;;;;;18.49;81.67;97541.72;5044259;28;20122;-74
2021/07/15 05:08:32;;;;;;;105.35;10.45;;;;;;;18.68;81.46;97547.16;5047415;28;20052;-73
2021/07/15 05:10:58;;;;;;;96.72;12.35;;;;;;;18.79;86.54;97550.75;5044309;28;20033;-71
2021/07/15 05:13:24;;;;;;;70.50;8.50;;;;;;;18.67;87.24;97548.16;5044650;28;21021;-72
2021/07/15 05:15:51;;;;;;;86.25;9.55;;;;;;;19.09;85.15;97547.41;5044437;28;20072;-72
2021/07/15 05:18:17;;;;;;;108.70;8.18;;;;;;;18.67;82.64;97548.16;5047697;28;20028;-72
2021/07/15 05:20:43;;;;;;;96.43;6.47;;;;;;;18.39;85.92;97544.25;5044723;28;20047;-71
2021/07/15 05:23:09;;;;;;;116.72;7.72;;;;;;;18.36;88.24;97544.50;5046102;28;20037;-72
2021/07/15 05:25:35;;;;;;;92.15;5.80;;;;;;;18.18;84.18;97552.09;5045182;28;20040;-72
2021/07/15 05:28:01;;;;;;;78.75;5.35;;;;;;;17.86;86.32;97552.78;5044598;28;20040;-72
2021/07/15 05:30:26;;;;;;;88.72;6.38;;;;;;;18.52;93.87;97549.38;5045550;28;20051;-72
2021/07/15 05:32:52;;;;;;;69.47;5.07;;;;;;;17.97;86.50;97538.75;5044144;28;20032;-73
2021/07/15 05:35:17;;;;;;;86.68;5.50;;;;;;;18.09;86.18;97531.69;5032357;28;20065;-71
2021/07/15 05:37:44;;;;;;;114.40;7.18;;;;;;;19.01;87.97;97534.84;5034481;28;20083;-71
2021/07/15 05:40:10;;;;;;;93.95;6.30;;;;;;;19.24;85.47;97529.41;5032111;28;20033;-72
2021/07/15 05:42:36;;;;;;;80.40;5.28;;;;;;;18.59;84.28;97524.16;5031488;28;20049;-72
2021/07/15 05:45:03;;;;;;;83.97;5.28;;;;;;;19.07;79.44;97529.03;5032163;28;20043;-71
2021/07/15 05:47:28;;;;;;;75.25;4.88;;;;;;;18.40;81.73;97523.97;5032297;28;20048;-73
2021/07/15 05:49:53;;;;;;;84.28;5.43;;;;;;;19.45;78.29;97532.06;5040326;28;20025;-71
2021/07/15 05:53:31;;;;;;;97.07;5.93;;;;;;;19.23;81.33;97546.28;5067598;27;21002;-73
2021/07/15 05:55:57;;;;;;;85.13;4.90;;;;;;;19.51;79.03;97551.88;5060280;28;20036;-73
2021/07/15 05:58:22;;;;;;;64.95;4.40;;;;;;;19.44;79.61;97556.84;5045589;28;20746;-74
2021/07/15 06:00:48;;;;;;;88.28;5.40;;;;;;;19.38;80.37;97555.53;5045673;28;20040;-73
2021/07/15 06:03:13;;;;;;;81.50;4.80;;;;;;;18.44;79.03;97550.00;5045988;28;20026;-73
2021/07/15 06:05:39;;;;;;;94.10;5.35;;;;;;;18.45;79.14;97553.47;5047257;28;20647;-71
2021/07/15 06:08:05;;;;;;;89.50;5.22;;;;;;;19.21;80.35;97561.44;5045152;28;20032;-71
2021/07/15 06:10:32;;;;;;;76.80;4.70;;;;;;;18.97;78.74;97559.00;5045779;28;20183;-72
2021/07/15 06:12:59;;;;;;;80.07;4.80;;;;;;;19.22;78.85;97565.72;5046084;28;20082;-72
2021/07/15 06:15:25;;;;;;;70.38;4.28;;;;;;;19.76;74.91;97567.38;5044023;28;20059;-71
2021/07/15 06:17:50;;;;;;;87.15;5.13;;;;;;;19.84;73.92;97569.34;5047960;28;20407;-71
2021/07/15 06:20:15;;;;;;;68.97;4.18;;;;;;;20.16;74.37;97561.28;5046069;28;20041;-73
2021/07/15 06:22:41;;;;;;;87.28;4.60;;;;;;;19.25;75.28;97568.13;5047087;28;20021;-71
2021/07/15 06:25:09;;;;;;;87.07;4.70;;;;;;;19.34;74.73;97575.28;5047443;28;20102;-70
2021/07/15 06:27:35;;;;;;;99.55;5.30;;;;;;;19.75;74.98;97565.69;5048418;28;20032;-73
2021/07/15 06:30:01;;;;;;;75.90;4.25;;;;;;;19.00;73.19;97564.03;5045443;28;20037;-72
2021/07/15 06:32:26;;;;;;;90.40;4.90;;;;;;;20.08;75.04;97573.50;5045795;28;20662;-72
2021/07/15 06:34:51;;;;;;;76.35;4.28;;;;;;;19.87;74.42;97574.41;5044875;28;20132;-70
2021/07/15 06:37:17;;;;;;;75.97;4.20;;;;;;;19.87;73.08;97578.81;5044510;28;20087;-71
2021/07/15 06:39:42;;;;;;;89.18;4.72;;;;;;;20.11;73.22;97576.72;5046330;28;20035;-72
2021/07/15 06:42:08;;;;;;;94.43;5.07;;;;;;;21.25;69.84;97568.47;5043866;28;20415;-72
2021/07/15 06:44:33;;;;;;;84.60;4.55;;;;;;;21.02;68.41;97573.19;5046250;28;20029;-71
2021/07/15 06:46:59;;;;;;;87.10;4.57;;;;;;;21.37;68.69;97565.47;5045610;28;20090;-72
2021/07/15 06:49:26;;;;;;;80.10;4.28;;;;;;;21.15;69.44;97577.22;5046947;28;20029;-70
2021/07/15 06:51:53;;;;;;;71.97;4.05;;;;;;;21.14;69.30;97575.56;5045033;28;20039;-72
2021/07/15 06:54:19;;;;;;;91.07;4.65;;;;;;;21.54;66.75;97571.06;5049355;28;20061;-71
2021/07/15 06:56:44;;;;;;;93.05;4.95;;;;;;;21.62;67.14;97589.78;5047589;28;20785;-70
2021/07/15 06:59:09;;;;;;;82.20;4.35;;;;;;;21.12;68.72;97584.66;5045945;28;20127;-75
2021/07/15 07:01:35;;;;;;;104.43;5.28;;;;;;;21.87;66.01;97580.38;5042387;28;20045;-74
2021/07/15 07:04:00;;;;;;;83.30;4.50;;;;;;;21.53;66.96;97595.97;5038219;28;20025;-73
2021/07/15 07:06:25;;;;;;;77.55;4.22;;;;;;;20.41;67.58;97588.25;5032218;28;20565;-73
2021/07/15 07:08:51;;;;;;;67.82;3.83;;;;;;;20.09;70.96;97591.06;5032139;28;20538;-72
2021/07/15 07:11:16;;;;;;;79.47;4.20;;;;;;;18.79;72.41;97587.75;5033199;28;20041;-74
2021/07/15 07:13:41;;;;;;;80.53;4.28;;;;;;;19.78;70.86;97581.31;5033660;28;20041;-73
2021/07/15 07:16:06;;;;;;;60.25;3.55;;;;;;;19.33;72.46;97591.28;5033003;28;20080;-73
2021/07/15 07:18:32;;;;;;;78.55;4.20;;;;;;;19.79;72.62;97582.13;5031756;28;20028;-73
2021/07/15 07:21:00;;;;;;;65.60;3.70;;;;;;;20.84;68.97;97583.63;5030250;28;20042;-73
2021/07/15 07:23:25;;;;;;;85.47;4.53;;;;;;;20.00;68.61;97584.78;5031753;28;20029;-73
2021/07/15 07:25:50;;;;;;;72.97;4.00;;;;;;;19.38;70.10;97582.00;5032672;28;20044;-73
2021/07/15 07:28:16;;;;;;;67.05;3.78;;;;;;;20.78;69.26;97574.41;5033898;28;20033;-73
2021/07/15 07:30:41;;;;;;;69.82;4.00;;;;;;;20.80;68.91;97585.72;5031159;28;20039;-74
2021/07/15 07:33:06;;;;;;;75.22;4.13;;;;;;;21.44;66.26;97580.84;5031748;28;20029;-71
2021/07/15 07:35:32;;;;;;;73.43;4.05;;;;;;;20.34;69.01;97576.53;5032094;28;20543;-73
2021/07/15 07:37:57;;;;;;;61.83;3.60;;;;;;;20.75;68.64;97574.69;5031635;28;20406;-74
2021/07/15 07:40:22;;;;;;;58.55;3.38;;;;;;;21.36;66.75;97582.41;5034312;28;20040;-73
2021/07/15 07:42:48;;;;;;;82.28;4.35;;;;;;;21.48;66.15;97582.28;5035110;28;20099;-74
2021/07/15 07:45:14;;;;;;;73.53;4.00;;;;;;;21.46;65.85;97584.22;5035785;28;20028;-72
2021/07/15 07:47:41;;;;;;;99.28;4.82;;;;;;;20.26;69.17;97594.91;5032149;28;20031;-74
2021/07/15 07:50:08;;;;;;;66.43;3.65;;;;;;;20.38;69.17;97585.88;5033011;28;20026;-72
2021/07/15 07:52:34;;;;;;;75.07;4.05;;;;;;;20.63;67.32;97594.34;5031954;28;20398;-72
2021/07/15 07:55:02;;;;;;;70.80;3.95;;;;;;;21.15;66.73;97581.69;5033189;28;20037;-72
2021/07/15 07:57:33;;;;;;;72.38;3.85;;;;;;;21.37;66.54;97586.72;5031592;28;20938;-71
2021/07/15 07:59:58;;;;;;;68.95;3.83;;;;;;;20.94;67.24;97584.50;5031751;28;20486;-71
2021/07/15 08:02:24;;;;;;;61.80;3.50;;;;;;;20.56;66.22;97589.53;5031207;28;20041;-72
2021/07/15 08:04:50;;;;;;;61.65;3.53;;;;;;;20.70;67.47;97591.00;5031852;28;20033;-73
2021/07/15 08:07:15;;;;;;;96.18;4.72;;;;;;;20.50;67.92;97592.75;5032208;28;20041;-71
2021/07/15 08:09:44;;;;;;;85.13;4.28;;;;;;;21.21;66.78;97585.59;5030833;28;20116;-72
2021/07/15 08:12:15;;;;;;;81.75;4.30;;;;;;;22.37;63.25;97581.03;5030099;28;20095;-72
2021/07/15 08:14:42;;;;;;;80.70;4.28;;;;;;;21.48;64.29;97588.41;5028938;28;20103;-72
2021/07/15 08:17:07;;;;;;;65.15;3.47;;;;;;;22.25;63.45;97580.38;5030333;28;20132;-71
2021/07/15 08:19:33;;;;;;;71.40;3.83;;;;;;;22.13;63.11;97583.22;5030070;28;20732;-71
2021/07/15 08:21:59;;;;;;;93.70;4.65;;;;;;;22.10;63.32;97588.00;5030988;28;20029;-72
2021/07/15 08:24:24;;;;;;;68.85;3.60;;;;;;;21.03;65.05;97588.13;5031156;28;20037;-71
2021/07/15 08:26:52;;;;;;;70.45;4.20;;;;;;;21.54;64.03;97592.31;5033809;28;20037;-72
2021/07/15 08:29:17;;;;;;;84.90;4.45;;;;;;;21.10;64.68;97586.56;5030409;28;20029;-74
2021/07/15 08:31:43;;;;;;;93.47;4.55;;;;;;;21.50;64.51;97590.94;5029611;28;20037;-73
2021/07/15 08:34:09;;;;;;;85.85;4.43;;;;;;;21.37;64.78;97586.72;5029959;28;20450;-72
2021/07/15 08:36:34;;;;;;;96.25;4.85;;;;;;;21.19;65.63;97588.38;5032684;28;20785;-72
2021/07/15 08:39:00;;;;;;;78.90;4.18;;;;;;;21.26;65.51;97588.69;5028611;28;20033;-71
2021/07/15 08:41:25;;;;;;;79.65;4.20;;;;;;;21.67;64.37;97592.88;5029674;28;20044;-72
2021/07/15 08:43:52;;;;;;;71.10;3.78;;;;;;;21.65;63.10;97584.22;5030023;28;20750;-71
2021/07/15 08:46:19;;;;;;;91.40;4.35;;;;;;;21.43;64.67;97584.47;5030252;28;20045;-72
2021/07/15 08:48:46;;;;;;;78.80;4.07;;;;;;;21.59;63.49;97581.28;5030497;28;20505;-72
2021/07/15 08:51:11;;;;;;;84.63;4.43;;;;;;;22.01;62.52;97576.41;5030552;28;20029;-71
2021/07/15 08:53:37;;;;;;;91.28;4.65;;;;;;;22.48;61.56;97584.34;5028853;28;20505;-72
2021/07/15 08:58:46;;;;;;;87.45;4.68;;;;;;;22.23;61.78;97591.13;5029997;28;20062;-72
2021/07/15 09:01:13;;;;;;;86.95;4.50;;;;;;;22.10;61.31;97585.34;5029877;28;20108;-72
2021/07/15 09:03:38;;;;;;;86.28;4.32;;;;;;;21.58;63.92;97587.56;5029645;28;20029;-71
2021/07/15 09:06:04;;;;;;;86.53;4.40;;;;;;;22.09;62.73;97587.16;5029777;28;21063;-72
2021/07/15 09:08:31;;;;;;;66.05;3.72;;;;;;;21.12;65.29;97582.00;5029962;28;20032;-72
2021/07/15 09:10:57;;;;;;;76.60;4.07;;;;;;;21.10;66.50;97589.22;5026712;28;20068;-71
2021/07/15 09:13:23;;;;;;;84.75;4.43;;;;;;;21.11;64.08;97589.09;5028195;28;20028;-73
2021/07/15 09:15:49;;;;;;;93.30;4.72;;;;;;;21.78;63.18;97583.91;5028248;28;20034;-73
2021/07/15 09:18:16;;;;;;;80.18;4.30;;;;;;;21.71;63.83;97588.94;5030797;28;20056;-72
2021/07/15 09:20:42;;;;;;;91.63;4.65;;;;;;;21.80;63.42;97586.38;5028163;28;20044;-72
2021/07/15 09:23:10;;;;;;;94.88;4.88;;;;;;;21.29;61.85;97585.75;5029202;28;20056;-73
2021/07/15 09:25:38;;;;;;;76.75;4.15;;;;;;;22.11;62.74;97587.00;5031019;28;20510;-72
2021/07/15 09:28:12;;;;;;;99.05;5.05;;;;;;;22.45;61.60;97587.28;5027912;28;20036;-72
2021/07/15 09:30:40;;;;;;;82.53;4.30;;;;;;;22.40;62.29;97589.56;5029578;28;20198;-71
2021/07/15 09:33:10;;;;;;;77.90;4.03;;;;;;;22.04;62.24;97584.09;5027503;28;20044;-72
2021/07/15 09:35:39;;;;;;;83.05;4.40;;;;;;;22.26;62.25;97582.91;5028878;28;20514;-73
2021/07/15 09:38:10;;;;;;;68.97;3.75;;;;;;;21.41;60.57;97581.13;5030271;28;20056;-73
2021/07/15 09:41:02;;;;;;;80.32;4.20;;;;;;;21.29;63.49;97583.94;5028763;28;20037;-72
2021/07/15 09:43:37;;;;;;;78.10;4.03;;;;;;;21.59;64.22;97584.75;5027980;28;20151;-72
2021/07/15 09:46:12;;;;;;;85.00;4.30;;;;;;;21.14;66.46;97588.81;5029147;28;20709;-72
2021/07/15 09:48:38;;;;;;;82.20;4.28;;;;;;;20.99;66.21;97588.41;5029153;28;20029;-72
2021/07/15 09:51:07;;;;;;;92.78;4.72;;;;;;;21.70;63.41;97581.94;5027958;28;20703;-73
2021/07/15 09:53:33;;;;;;;91.05;4.60;;;;;;;21.03;65.23;97588.97;5028310;28;20033;-72
2021/07/15 09:56:17;;;;;;;77.68;4.22;;;;;;;21.13;65.38;97586.31;5029966;28;20087;-72
2021/07/15 09:58:46;;;;;;;95.25;4.70;;;;;;;21.74;63.68;97585.16;5029058;28;20029;-73
2021/07/15 10:01:14;;;;;;;81.07;4.45;;;;;;;21.84;63.13;97598.41;5029221;28;20168;-72
2021/07/15 10:03:47;;;;;;;80.85;4.20;;;;;;;22.50;61.06;97594.84;5031009;28;20028;-71
2021/07/15 10:06:15;;;;;;;83.78;4.45;;;;;;;22.16;62.10;97597.19;5027455;28;20064;-71
2021/07/15 10:08:42;;;;;;;92.20;4.65;;;;;;;22.51;61.05;97591.19;5029528;28;20033;-72
2021/07/15 10:11:33;;;;;;;87.30;4.43;;;;;;;22.84;60.11;97596.88;5028130;28;20033;-72
2021/07/15 10:14:03;;;;;;;68.72;3.75;;;;;;;22.73;59.97;97597.06;5023118;28;20128;-71
2021/07/15 10:16:30;;;;;;;91.18;4.60;;;;;;;22.58;59.97;97597.56;5027411;28;20041;-71
2021/07/15 10:18:55;;;;;;;74.05;3.88;;;;;;;22.74;60.11;97590.78;5030193;28;20040;-72
2021/07/15 10:21:26;;;;;;;72.28;3.90;;;;;;;20.70;64.26;97598.97;5027336;28;20042;-73
2021/07/15 10:23:52;;;;;;;87.47;4.38;;;;;;;22.40;60.78;97600.19;5028393;28;20021;-73
2021/07/15 10:26:17;;;;;;;80.55;4.30;;;;;;;21.47;62.10;97607.97;5028002;28;20040;-74
2021/07/15 10:28:46;;;;;;;92.50;4.63;;;;;;;21.41;64.16;97607.66;5027840;28;20033;-71
2021/07/15 10:31:13;;;;;;;81.90;4.35;;;;;;;21.37;63.93;97607.09;5029362;28;20052;-71
2021/07/15 10:33:40;;;;;;;84.32;4.32;;;;;;;22.05;61.80;97609.66;5028867;28;20021;-71
2021/07/15 10:36:06;;;;;;;87.18;4.55;;;;;;;22.48;61.07;97615.41;5028214;28;20041;-71
2021/07/15 10:38:37;;;;;;;93.70;4.75;;;;;;;22.89;59.56;97608.72;5028544;28;20385;-71
2021/07/15 10:41:03;;;;;;;90.00;4.63;;;;;;;22.11;61.43;97605.56;5031752;28;20038;-70
2021/07/15 10:43:31;;;;;;;78.38;4.10;;;;;;;22.79;59.92;97610.63;5031793;28;20076;-74
2021/07/15 10:45:58;;;;;;;73.65;3.88;;;;;;;22.73;60.07;97611.19;5030225;28;20604;-75
2021/07/15 10:48:24;;;;;;;76.80;4.07;;;;;;;22.45;60.88;97611.22;5032396;28;20103;-72
2021/07/15 10:50:50;;;;;;;84.68;4.30;;;;;;;23.15;58.76;97605.34;5031055;28;20044;-71
2021/07/15 10:53:16;;;;;;;88.32;4.68;;;;;;;22.03;60.93;97613.44;5031972;28;20026;-74
2021/07/15 10:55:42;;;;;;;81.38;4.35;;;;;;;22.20;61.27;97615.34;5033375;28;20037;-73
2021/07/15 10:58:07;;;;;;;88.35;4.55;;;;;;;22.58;60.69;97613.53;5033861;28;20025;-71
2021/07/15 11:00:33;;;;;;;85.05;4.45;;;;;;;22.71;59.34;97616.66;5031023;28;20652;-73
2021/07/15 11:03:15;;;;;;;79.05;4.20;;;;;;;21.07;62.73;97618.69;5032277;28;20434;-71
2021/07/15 11:05:46;;;;;;;;;;;;;;;22.12;61.01;97613.41;5031465;28;20689;-71
2021/07/15 11:08:12;;;;;;;88.85;4.65;;;;;;;22.28;60.77;97618.13;5031945;28;19913;-71
2021/07/15 11:10:38;;;;;;;80.03;4.30;;;;;;;21.68;64.25;97618.41;5028621;28;20402;-72
2021/07/15 11:13:05;;;;;;;85.63;4.43;;;;;;;22.49;60.71;97619.72;5029473;28;20356;-72
2021/07/15 11:15:52;;;;;;;89.00;4.45;;;;;;;22.92;59.45;97620.91;5032252;28;20462;-73
2021/07/15 11:18:49;;;;;;;86.55;4.60;;;;;;;22.55;60.55;97626.28;5030828;28;20025;-71
2021/07/15 11:21:30;;;;;;;72.40;3.92;;;;;;;23.00;59.04;97633.44;5029262;28;20037;-72
2021/07/15 11:24:02;;;;;;;91.23;4.73;;;;;;;22.71;60.12;97623.81;5030942;28;20052;-71
2021/07/15 11:26:29;;;;;;;72.25;3.88;;;;;;;23.18;58.42;97623.69;5032760;28;20042;-71
2021/07/15 11:28:54;;;;;;;79.82;4.30;;;;;;;23.52;57.40;97617.63;5033914;28;20021;-73
2021/07/15 11:31:42;;;;;;;86.03;4.47;;;;;;;23.73;56.65;97624.44;5030570;28;20143;-72
2021/07/15 11:34:09;;;;;;;73.05;3.78;;;;;;;23.37;57.84;97625.34;5034506;28;20716;-71